createdAt,value
2022-10-22T00:00:51.195Z,101238.44
2022-10-22T00:03:18.373Z,101233.94
2022-10-22T00:05:45.865Z,101230.56
2022-10-22T00:08:14.321Z,101221.94
2022-10-22T00:10:41.885Z,101223.53
2022-10-22T00:13:09.066Z,101229.09
2022-10-22T00:15:42.525Z,101226.00
2022-10-22T00:18:09.835Z,101224.41
2022-10-22T00:20:37.059Z,101212.31
2022-10-22T00:23:05.509Z,101216.28
2022-10-22T00:25:34.404Z,101210.34
2022-10-22T00:28:02.636Z,101204.94
2022-10-22T00:30:29.926Z,101208.38
2022-10-22T00:32:57.143Z,101203.47
2022-10-22T00:35:24.429Z,101193.38
2022-10-22T00:37:51.821Z,101186.69
2022-10-22T00:40:19.059Z,101197.56
2022-10-22T00:42:46.299Z,101191.88
2022-10-22T00:45:16.818Z,101193.84
2022-10-22T00:48:04.803Z,101188.81
2022-10-22T00:50:35.865Z,101168.69
2022-10-22T00:53:04.650Z,101174.88
2022-10-22T00:55:33.072Z,101174.41
2022-10-22T00:58:01.557Z,101167.22
2022-10-22T01:00:29.003Z,101169.22
2022-10-22T01:02:57.389Z,101166.75
2022-10-22T01:05:27.382Z,101165.03
2022-10-22T01:07:54.989Z,101171.41
2022-10-22T01:10:22.146Z,101171.19
2022-10-22T01:13:00.085Z,101167.50
2022-10-22T01:15:33.447Z,101161.78
2022-10-22T01:18:03.807Z,101165.41
2022-10-22T01:20:49.986Z,101169.09
2022-10-22T01:23:26.961Z,101168.94
2022-10-22T01:25:58.605Z,101161.78
2022-10-22T01:28:44.444Z,101162.56
2022-10-22T01:31:13.632Z,101160.50
2022-10-22T01:33:42.026Z,101157.88
2022-10-22T01:36:09.712Z,101163.28
2022-10-22T01:38:38.183Z,101155.44
2022-10-22T01:41:05.777Z,101158.38
2022-10-22T01:43:33.494Z,101153.44
2022-10-22T01:46:02.363Z,101151.94
2022-10-22T01:48:48.154Z,101149.00
2022-10-22T01:51:24.254Z,101152.22
2022-10-22T01:53:55.195Z,101154.94
2022-10-22T01:56:31.745Z,101151.09
2022-10-22T01:59:17.837Z,101148.53
2022-10-22T02:01:48.186Z,101150.22
2022-10-22T02:04:15.413Z,101147.78
2022-10-22T02:06:43.802Z,101144.31
2022-10-22T02:09:13.962Z,101145.28
2022-10-22T02:11:42.067Z,101148.50
2022-10-22T02:14:10.983Z,101141.03
2022-10-22T02:16:41.392Z,101139.66
2022-10-22T02:19:23.391Z,101138.88
2022-10-22T02:21:51.156Z,101128.81
2022-10-22T02:24:18.831Z,101128.38
2022-10-22T02:27:01.375Z,101131.97
2022-10-22T02:29:36.079Z,101132.94
2022-10-22T02:32:06.098Z,101129.78
2022-10-22T02:34:33.506Z,101125.59
2022-10-22T02:37:02.319Z,101124.38
2022-10-22T02:39:31.417Z,101127.31
2022-10-22T02:42:02.563Z,101126.84
2022-10-22T02:44:29.823Z,101121.91
2022-10-22T02:46:57.197Z,101130.00
2022-10-22T02:49:24.530Z,101120.91
2022-10-22T02:51:51.753Z,101123.91
2022-10-22T02:54:19.146Z,101119.94
2022-10-22T02:56:46.357Z,101119.84
2022-10-22T02:59:13.914Z,101119.66
2022-10-22T03:01:41.135Z,101114.06
2022-10-22T03:04:08.383Z,101114.75
2022-10-22T03:06:44.189Z,101116.59
2022-10-22T03:09:11.707Z,101112.31
2022-10-22T03:11:38.889Z,101104.59
2022-10-22T03:14:06.168Z,101114.78
2022-10-22T03:16:33.364Z,101111.81
2022-10-22T03:19:02.068Z,101112.53
2022-10-22T03:21:35.916Z,101107.34
2022-10-22T03:24:06.322Z,101115.75
2022-10-22T03:26:33.972Z,101111.44
2022-10-22T03:29:01.508Z,101109.81
2022-10-22T03:31:28.864Z,101114.25
2022-10-22T03:33:56.120Z,101110.59
2022-10-22T03:36:24.234Z,101119.19
2022-10-22T03:38:51.496Z,101111.81
2022-10-22T03:41:18.794Z,101107.56
2022-10-22T03:43:50.105Z,101106.88
2022-10-22T03:46:17.315Z,101107.56
2022-10-22T03:48:44.487Z,101103.13
2022-10-22T03:51:11.847Z,101091.38
2022-10-22T03:53:39.050Z,101101.94
2022-10-22T03:56:10.749Z,101094.16
2022-10-22T03:58:38.693Z,101097.78
2022-10-22T04:01:10.498Z,101102.22
2022-10-22T04:03:45.923Z,101095.00
2022-10-22T04:06:13.692Z,101092.25
2022-10-22T04:08:41.402Z,101084.34
2022-10-22T04:11:09.597Z,101082.97
2022-10-22T04:13:37.000Z,101088.91
2022-10-22T04:16:12.007Z,101077.88
2022-10-22T04:18:39.501Z,101082.59
2022-10-22T04:21:07.633Z,101086.41
2022-10-22T04:23:35.190Z,101088.59
2022-10-22T04:26:03.913Z,101087.97
2022-10-22T04:28:31.178Z,101081.66
2022-10-22T04:30:58.504Z,101081.97
2022-10-22T04:33:25.837Z,101083.72
2022-10-22T04:35:53.028Z,101077.09
2022-10-22T04:38:20.261Z,101073.88
2022-10-22T04:40:47.424Z,101070.38
2022-10-22T04:43:14.757Z,101065.84
2022-10-22T04:45:42.027Z,101055.09
2022-10-22T04:48:09.350Z,101070.00
2022-10-22T04:50:36.576Z,101057.94
2022-10-22T04:53:06.155Z,101066.28
2022-10-22T04:55:33.395Z,101065.47
2022-10-22T04:58:01.449Z,101071.19
2022-10-22T05:00:28.810Z,101066.94
2022-10-22T05:02:56.005Z,101078.25
2022-10-22T05:05:23.236Z,101076.97
2022-10-22T05:07:51.222Z,101085.44
2022-10-22T05:10:18.501Z,101077.34
2022-10-22T05:12:45.953Z,101077.56
2022-10-22T05:15:13.193Z,101083.75
2022-10-22T05:17:40.550Z,101078.59
2022-10-22T05:20:08.404Z,101077.34
2022-10-22T05:22:35.708Z,101077.84
2022-10-22T05:25:03.210Z,101081.00
2022-10-22T05:27:30.404Z,101075.97
2022-10-22T05:29:57.748Z,101078.84
2022-10-22T05:32:24.994Z,101077.09
2022-10-22T05:34:52.358Z,101078.53
2022-10-22T05:37:19.816Z,101081.97
2022-10-22T05:39:47.105Z,101076.34
2022-10-22T05:42:14.287Z,101076.09
2022-10-22T05:44:41.709Z,101070.69
2022-10-22T05:47:10.097Z,101077.56
2022-10-22T05:49:37.453Z,101076.88
2022-10-22T05:52:04.802Z,101071.41
2022-10-22T05:54:32.123Z,101075.34
2022-10-22T05:56:59.332Z,101074.84
2022-10-22T05:59:26.778Z,101071.25
2022-10-22T06:01:54.112Z,101072.34
2022-10-22T06:04:21.704Z,101068.44
2022-10-22T06:06:53.163Z,101073.19
2022-10-22T06:09:22.418Z,101078.28
2022-10-22T06:11:50.952Z,101082.53
2022-10-22T06:14:19.063Z,101081.53
2022-10-22T06:16:46.709Z,101077.69
2022-10-22T06:19:15.808Z,101080.03
2022-10-22T06:21:43.278Z,101073.38
2022-10-22T06:24:10.783Z,101065.06
2022-10-22T06:26:38.551Z,101068.22
2022-10-22T06:29:05.849Z,101056.66
2022-10-22T06:31:36.876Z,101073.38
2022-10-22T06:34:05.116Z,101076.88
2022-10-22T06:36:32.653Z,101079.34
2022-10-22T06:39:00.035Z,101086.81
2022-10-22T06:41:28.980Z,101081.53
2022-10-22T06:43:57.673Z,101067.16
2022-10-22T06:46:25.868Z,101069.56
2022-10-22T06:48:57.596Z,101079.78
2022-10-22T06:51:25.615Z,101068.72
2022-10-22T06:53:53.188Z,101072.91
2022-10-22T06:56:21.456Z,101077.53
2022-10-22T06:58:49.504Z,101083.94
2022-10-22T07:01:17.867Z,101076.69
2022-10-22T07:03:45.173Z,101075.13
2022-10-22T07:06:13.581Z,101077.31
2022-10-22T07:08:41.404Z,101083.47
2022-10-22T07:11:10.424Z,101077.31
2022-10-22T07:13:37.902Z,101072.78
2022-10-22T07:16:06.211Z,101073.38
2022-10-22T07:18:33.734Z,101071.78
2022-10-22T07:21:01.276Z,101075.84
2022-10-22T07:23:28.703Z,101073.41
2022-10-22T07:28:28.777Z,101071.41
2022-10-22T07:30:56.065Z,101080.28
2022-10-22T07:33:23.360Z,101069.97
2022-10-22T07:35:50.608Z,101085.69
2022-10-22T07:38:18.004Z,101083.25
2022-10-22T07:40:45.213Z,101087.78
2022-10-22T07:43:12.588Z,101084.97
2022-10-22T07:45:41.281Z,101081.03
2022-10-22T07:48:08.532Z,101080.28
2022-10-22T07:50:36.025Z,101095.59
2022-10-22T07:53:03.501Z,101081.91
2022-10-22T07:55:31.310Z,101077.47
2022-10-22T07:57:58.536Z,101084.22
2022-10-22T08:00:26.007Z,101085.47
2022-10-22T08:02:53.552Z,101088.66
2022-10-22T08:05:20.758Z,101090.13
2022-10-22T08:07:48.083Z,101086.72
2022-10-22T08:10:15.427Z,101091.38
2022-10-22T08:12:43.065Z,101088.91
2022-10-22T08:15:10.811Z,101091.16
2022-10-22T08:17:38.226Z,101081.91
2022-10-22T08:20:05.685Z,101088.41
2022-10-22T08:22:33.103Z,101093.31
2022-10-22T08:25:00.575Z,101085.72
2022-10-22T08:27:27.952Z,101089.88
2022-10-22T08:29:55.213Z,101085.94
2022-10-22T08:32:22.594Z,101087.16
2022-10-22T08:34:50.108Z,101094.56
2022-10-22T08:37:17.926Z,101092.84
2022-10-22T08:39:45.297Z,101089.63
2022-10-22T08:42:31.327Z,101072.91
2022-10-22T08:45:13.543Z,101080.66
2022-10-22T08:47:41.031Z,101076.09
2022-10-22T08:50:09.985Z,101069.44
2022-10-22T08:52:39.401Z,101069.69
2022-10-22T08:55:12.623Z,101077.34
2022-10-22T08:57:52.550Z,101071.53
2022-10-22T09:00:27.711Z,101070.44
2022-10-22T09:03:13.680Z,101062.31
2022-10-22T09:05:59.164Z,101058.13
2022-10-22T09:08:26.498Z,101062.34
2022-10-22T09:10:57.608Z,101062.31
2022-10-22T09:13:25.073Z,101052.25
2022-10-22T09:15:59.051Z,101054.69
2022-10-22T09:18:39.513Z,101053.31
2022-10-22T09:21:16.070Z,101049.63
2022-10-22T09:24:02.273Z,101051.25
2022-10-22T09:26:30.377Z,101047.78
2022-10-22T09:28:59.537Z,101047.19
2022-10-22T09:31:28.330Z,101039.38
2022-10-22T09:33:55.566Z,101050.97
2022-10-22T09:36:23.292Z,101055.94
2022-10-22T09:38:51.920Z,101062.31
2022-10-22T09:41:19.917Z,101043.31
2022-10-22T09:43:47.684Z,101059.84
2022-10-22T09:46:19.151Z,101055.44
2022-10-22T09:49:00.940Z,101059.84
2022-10-22T09:51:37.707Z,101054.97
2022-10-22T09:54:14.682Z,101047.75
2022-10-22T09:56:42.559Z,101051.44
2022-10-22T09:59:14.931Z,101048.88
2022-10-22T10:01:42.196Z,101040.50
2022-10-22T10:04:13.184Z,101048.28
2022-10-22T10:06:41.527Z,101051.50
2022-10-22T10:09:30.212Z,101056.41
2022-10-22T10:12:03.480Z,101060.97
2022-10-22T10:14:46.369Z,101067.69
2022-10-22T10:17:13.767Z,101054.22
2022-10-22T10:20:10.481Z,101058.34
2022-10-22T10:22:53.208Z,101051.75
2022-10-22T10:25:32.957Z,101048.25
2022-10-22T10:28:04.381Z,101051.25
2022-10-22T10:30:33.277Z,101049.66
2022-10-22T10:33:00.464Z,101050.00
2022-10-22T10:35:27.880Z,101048.53
2022-10-22T10:38:14.011Z,101044.09
2022-10-22T10:40:52.626Z,101042.25
2022-10-22T10:43:29.803Z,101032.03
2022-10-22T10:46:08.212Z,101030.06
2022-10-22T10:48:35.478Z,101031.28
2022-10-22T10:51:02.634Z,101022.69
2022-10-22T10:53:37.258Z,101024.78
2022-10-22T10:56:13.647Z,101018.72
2022-10-22T10:58:54.696Z,101024.50
2022-10-22T11:01:21.931Z,101016.50
2022-10-22T11:04:26.431Z,101016.13
2022-10-22T11:07:33.496Z,101013.31
2022-10-22T11:10:21.939Z,101007.63
2022-10-22T11:12:53.102Z,101005.44
2022-10-22T11:15:44.166Z,100999.00
2022-10-22T11:18:11.522Z,100988.16
2022-10-22T11:20:49.680Z,100989.22
2022-10-22T11:23:24.566Z,100984.97
2022-10-22T11:25:52.194Z,100987.19
2022-10-22T11:28:26.200Z,100981.25
2022-10-22T11:30:57.003Z,100984.22
2022-10-22T11:33:26.710Z,100984.47
2022-10-22T11:35:54.321Z,100993.81
2022-10-22T11:38:25.294Z,100993.16
2022-10-22T11:40:52.481Z,100993.88
2022-10-22T11:43:33.397Z,101005.19
2022-10-22T11:46:15.934Z,101005.47
2022-10-22T11:48:43.320Z,100994.84
2022-10-22T11:51:46.814Z,101007.50
2022-10-22T11:54:31.258Z,100995.31
2022-10-22T11:57:17.794Z,101006.66
2022-10-22T11:59:49.919Z,100996.34
2022-10-22T12:02:24.724Z,100987.47
2022-10-22T12:04:52.127Z,100979.75
2022-10-22T12:07:31.496Z,100973.34
2022-10-22T12:09:58.939Z,100981.81
2022-10-22T12:12:28.932Z,100982.50
2022-10-22T12:14:59.488Z,100982.16
2022-10-22T12:17:28.465Z,100981.81
2022-10-22T12:20:03.443Z,100980.50
2022-10-22T12:22:32.610Z,100987.25
2022-10-22T12:25:02.234Z,100989.94
2022-10-22T12:27:35.366Z,100985.94
2022-10-22T12:30:03.857Z,100987.69
2022-10-22T12:32:42.883Z,100980.09
2022-10-22T12:35:17.750Z,100980.19
2022-10-22T12:37:45.306Z,100978.38
2022-10-22T12:40:23.947Z,100975.81
2022-10-22T12:42:56.148Z,100977.84
2022-10-22T12:45:23.923Z,100979.81
2022-10-22T12:47:52.632Z,100976.88
2022-10-22T12:50:21.563Z,100984.78
2022-10-22T12:52:48.938Z,100986.72
2022-10-22T12:55:17.046Z,100988.69
2022-10-22T12:57:46.420Z,100985.03
2022-10-22T13:00:21.022Z,100985.75
2022-10-22T13:02:48.277Z,100984.31
2022-10-22T13:05:23.897Z,100979.09
2022-10-22T13:07:55.773Z,100981.66
2022-10-22T13:10:25.319Z,100983.28
2022-10-22T13:12:56.756Z,100981.06
2022-10-22T13:15:35.924Z,100975.06
2022-10-22T13:18:17.279Z,100976.41
2022-10-22T13:20:58.881Z,100962.84
2022-10-22T13:23:28.106Z,100966.63
2022-10-22T13:25:59.769Z,100955.94
2022-10-22T13:28:27.673Z,100960.13
2022-10-22T13:30:59.735Z,100969.63
2022-10-22T13:33:33.534Z,100960.06
2022-10-22T13:36:00.871Z,100963.50
2022-10-22T13:38:28.329Z,100956.19
2022-10-22T13:40:56.041Z,100958.09
2022-10-22T13:43:23.766Z,100954.38
2022-10-22T13:45:55.770Z,100964.81
2022-10-22T13:48:23.984Z,100952.25
2022-10-22T13:50:51.842Z,100959.81
2022-10-22T13:53:20.695Z,100960.34
2022-10-22T13:55:47.955Z,100964.81
2022-10-22T13:58:19.202Z,100961.84
2022-10-22T14:00:47.918Z,100965.28
2022-10-22T14:03:21.596Z,100966.78
2022-10-22T14:05:49.094Z,100964.56
2022-10-22T14:08:19.228Z,100957.31
2022-10-22T14:10:46.848Z,100957.13
2022-10-22T14:13:14.829Z,100966.25
2022-10-22T14:15:43.105Z,100964.56
2022-10-22T14:18:12.821Z,100962.13
2022-10-22T14:20:42.317Z,100959.03
2022-10-22T14:23:19.578Z,100962.56
2022-10-22T14:25:47.608Z,100961.13
2022-10-22T14:28:14.817Z,100953.19
2022-10-22T14:30:42.136Z,100955.66
2022-10-22T14:33:14.991Z,100951.03
2022-10-22T14:35:42.326Z,100955.19
2022-10-22T14:38:09.630Z,100961.72
2022-10-22T14:40:39.112Z,100961.50
2022-10-22T14:43:06.496Z,100961.13
2022-10-22T14:45:33.710Z,100966.03
2022-10-22T14:48:02.033Z,100966.78
2022-10-22T14:50:29.264Z,100963.72
2022-10-22T14:52:58.923Z,100976.66
2022-10-22T14:55:27.265Z,100979.63
2022-10-22T14:57:54.558Z,100990.19
2022-10-22T15:00:22.005Z,100983.53
2022-10-22T15:02:49.395Z,100981.81
2022-10-22T15:05:17.522Z,100982.56
2022-10-22T15:07:45.376Z,100984.00
2022-10-22T15:10:12.644Z,100987.47
2022-10-22T15:12:39.908Z,100983.19
2022-10-22T15:15:07.397Z,100985.50
2022-10-22T15:17:34.624Z,100983.78
2022-10-22T15:20:04.235Z,100992.41
2022-10-22T15:22:35.282Z,100977.16
2022-10-22T15:25:05.395Z,100993.63
2022-10-22T15:27:32.763Z,100993.16
2022-10-22T15:30:00.102Z,101000.78
2022-10-22T15:32:29.180Z,100991.06
2022-10-22T15:34:56.446Z,101004.47
2022-10-22T15:37:23.742Z,100998.81
2022-10-22T15:39:50.993Z,100998.59
2022-10-22T15:42:21.283Z,100999.06
2022-10-22T15:44:48.499Z,101011.38
2022-10-22T15:47:15.676Z,101003.63
2022-10-22T15:49:43.010Z,100997.84
2022-10-22T15:52:10.295Z,100997.09
2022-10-22T15:54:37.632Z,100998.31
2022-10-22T15:57:08.711Z,100998.03
2022-10-22T15:59:36.392Z,100993.13
2022-10-22T16:02:03.608Z,100987.25
2022-10-22T16:04:30.956Z,100983.78
2022-10-22T16:06:58.937Z,100991.53
2022-10-22T16:09:27.275Z,100995.84
2022-10-22T16:11:55.631Z,100993.63
2022-10-22T16:14:24.175Z,100992.91
2022-10-22T16:16:52.557Z,100992.66
2022-10-22T16:19:20.840Z,100999.31
2022-10-22T16:21:51.986Z,100996.59
2022-10-22T16:24:19.996Z,100996.34
2022-10-22T16:26:47.740Z,100996.34
2022-10-22T16:29:16.503Z,100999.78
2022-10-22T16:31:44.128Z,101002.72
2022-10-22T16:34:11.861Z,100992.91
2022-10-22T16:36:39.233Z,101002.97
2022-10-22T16:39:07.149Z,101002.28
2022-10-22T16:41:37.234Z,101000.53
2022-10-22T16:44:06.182Z,100999.56
2022-10-22T16:46:34.088Z,100994.84
2022-10-22T16:49:01.381Z,100998.06
2022-10-22T16:51:28.706Z,101001.03
2022-10-22T16:53:56.854Z,100999.06
2022-10-22T16:56:25.084Z,100990.41
2022-10-22T16:58:53.479Z,100991.69
2022-10-22T17:01:22.268Z,100987.13
2022-10-22T17:03:49.571Z,100989.22
2022-10-22T17:06:16.831Z,100988.38
2022-10-22T17:08:44.227Z,100979.63
2022-10-22T17:11:12.931Z,100987.00
2022-10-22T17:13:41.264Z,100984.53
2022-10-22T17:16:10.361Z,100991.91
2022-10-22T17:18:39.000Z,100988.00
2022-10-22T17:21:07.378Z,100988.72
2022-10-22T17:23:34.630Z,100989.94
2022-10-22T17:26:08.602Z,100988.69
2022-10-22T17:28:36.545Z,100994.63
2022-10-22T17:31:08.656Z,100992.16
2022-10-22T17:33:36.111Z,100982.56
2022-10-22T17:36:09.242Z,100983.56
2022-10-22T17:38:37.373Z,100978.50
2022-10-22T17:41:06.963Z,100980.56
2022-10-22T17:43:36.071Z,100982.81
2022-10-22T17:46:06.853Z,100971.34
2022-10-22T17:48:34.475Z,100966.78
2022-10-22T17:51:05.567Z,100953.00
2022-10-22T17:53:32.877Z,100961.38
2022-10-22T17:56:01.369Z,100959.19
2022-10-22T17:58:31.557Z,100952.78
2022-10-22T18:00:58.847Z,100955.22
2022-10-22T18:03:27.964Z,100946.13
2022-10-22T18:05:55.754Z,100939.63
2022-10-22T18:08:25.926Z,100947.59
2022-10-22T18:10:53.163Z,100945.13
2022-10-22T18:13:21.069Z,100947.34
2022-10-22T18:15:54.002Z,100944.88
2022-10-22T18:18:21.737Z,100944.16
2022-10-22T18:20:52.216Z,100949.06
2022-10-22T18:23:20.309Z,100947.31
2022-10-22T18:25:48.800Z,100941.66
2022-10-22T18:28:17.077Z,100949.53
2022-10-22T18:30:44.580Z,100949.06
2022-10-22T18:33:13.113Z,100948.84
2022-10-22T18:35:43.543Z,100954.75
2022-10-22T18:38:10.823Z,100949.78
2022-10-22T18:40:43.727Z,100937.97
2022-10-22T18:43:11.081Z,100946.06
2022-10-22T18:45:45.367Z,100944.81
2022-10-22T18:48:13.478Z,100944.38
2022-10-22T18:50:40.867Z,100941.19
2022-10-22T18:53:08.196Z,100942.66
2022-10-22T18:55:38.158Z,100943.91
2022-10-22T18:58:05.781Z,100947.84
2022-10-22T19:00:34.631Z,100941.47
2022-10-22T19:03:03.337Z,100937.53
2022-10-22T19:05:31.238Z,100933.31
2022-10-22T19:07:58.599Z,100934.44
2022-10-22T19:10:25.810Z,100934.81
2022-10-22T19:12:53.628Z,100935.31
2022-10-22T19:15:20.944Z,100930.16
2022-10-22T19:17:48.207Z,100926.94
2022-10-22T19:20:15.431Z,100938.22
2022-10-22T19:22:42.878Z,100932.59
2022-10-22T19:25:11.979Z,100937.28
2022-10-22T19:27:40.170Z,100929.88
2022-10-22T19:30:08.019Z,100937.03
2022-10-22T19:32:35.275Z,100936.78
2022-10-22T19:35:02.597Z,100939.63
2022-10-22T19:37:30.051Z,100937.75
2022-10-22T19:39:57.252Z,100939.03
2022-10-22T19:42:24.468Z,100938.53
2022-10-22T19:44:51.768Z,100940.00
2022-10-22T19:47:19.128Z,100934.84
2022-10-22T19:49:46.386Z,100932.59
2022-10-22T19:52:13.762Z,100939.50
2022-10-22T19:54:41.985Z,100938.75
2022-10-22T19:57:09.222Z,100930.63
2022-10-22T19:59:36.516Z,100931.88
2022-10-22T20:02:03.901Z,100939.25
2022-10-22T20:04:31.210Z,100936.78
2022-10-22T20:06:58.526Z,100943.41
2022-10-22T20:09:25.828Z,100935.31
2022-10-22T20:11:53.150Z,100939.25
2022-10-22T20:14:20.451Z,100936.09
2022-10-22T20:16:47.886Z,100948.59
2022-10-22T20:19:16.405Z,100946.66
2022-10-22T20:21:43.901Z,100946.66
2022-10-22T20:24:12.011Z,100950.66
2022-10-22T20:26:39.376Z,100946.91
2022-10-22T20:29:07.844Z,100943.94
2022-10-22T20:31:36.344Z,100941.75
2022-10-22T20:34:04.213Z,100958.22
2022-10-22T20:36:32.584Z,100949.84
2022-10-22T20:39:01.189Z,100945.91
2022-10-22T20:41:28.548Z,100948.13
2022-10-22T20:43:55.809Z,100941.72
2022-10-22T20:46:27.593Z,100946.63
2022-10-22T20:48:56.956Z,100946.59
2022-10-22T20:51:24.363Z,100944.53
2022-10-22T20:53:51.591Z,100948.22
2022-10-22T20:56:19.349Z,100942.97
2022-10-22T20:58:49.496Z,100940.25
2022-10-22T21:01:21.810Z,100941.72
2022-10-22T21:03:52.498Z,100940.00
2022-10-22T21:06:23.235Z,100937.78
2022-10-22T21:08:51.456Z,100936.28
2022-10-22T21:11:19.460Z,100940.22
2022-10-22T21:13:46.859Z,100936.09
2022-10-22T21:16:14.832Z,100943.66
2022-10-22T21:18:42.083Z,100932.38
2022-10-22T21:21:09.742Z,100929.38
2022-10-22T21:23:37.408Z,100924.25
2022-10-22T21:26:05.132Z,100927.13
2022-10-22T21:28:35.410Z,100925.06
2022-10-22T21:31:04.116Z,100916.53
2022-10-22T21:33:31.625Z,100929.19
2022-10-22T21:35:58.971Z,100924.75
2022-10-22T21:38:26.332Z,100925.94
2022-10-22T21:40:53.615Z,100923.09
2022-10-22T21:43:20.902Z,100926.44
2022-10-22T21:45:48.158Z,100920.56
2022-10-22T21:48:15.769Z,100919.84
2022-10-22T21:50:43.768Z,100913.91
2022-10-22T21:53:12.051Z,100914.44
2022-10-22T21:55:40.058Z,100914.66
2022-10-22T21:58:07.934Z,100910.25
2022-10-22T22:00:35.448Z,100910.97
2022-10-22T22:03:02.692Z,100911.19
2022-10-22T22:05:30.074Z,100904.56
2022-10-22T22:07:57.357Z,100908.22
2022-10-22T22:10:26.637Z,100895.22
2022-10-22T22:12:54.315Z,100909.03
2022-10-22T22:15:21.577Z,100894.47
2022-10-22T22:17:48.762Z,100901.38
2022-10-22T22:20:16.065Z,100905.31
2022-10-22T22:22:43.510Z,100905.19
2022-10-22T22:25:11.078Z,100900.00
2022-10-22T22:27:38.377Z,100892.50
2022-10-22T22:30:05.977Z,100898.88
2022-10-22T22:32:33.263Z,100902.59
2022-10-22T22:35:00.494Z,100899.13
2022-10-22T22:37:27.700Z,100894.72
2022-10-22T22:39:55.157Z,100904.59
2022-10-22T22:42:22.721Z,100901.88
2022-10-22T22:44:49.930Z,100905.03
2022-10-22T22:47:17.238Z,100909.47
2022-10-22T22:49:44.472Z,100905.78
2022-10-22T22:52:11.764Z,100909.72
2022-10-22T22:54:38.972Z,100912.44
2022-10-22T22:57:06.414Z,100905.78
2022-10-22T22:59:33.599Z,100904.81
2022-10-22T23:02:00.803Z,100906.31
2022-10-22T23:04:30.264Z,100900.13
2022-10-22T23:06:57.625Z,100899.53
2022-10-22T23:09:24.889Z,100895.22
2022-10-22T23:11:52.524Z,100894.25
2022-10-22T23:14:20.116Z,100896.22
2022-10-22T23:16:48.911Z,100903.31
2022-10-22T23:19:18.565Z,100909.00
2022-10-22T23:21:49.272Z,100912.19
2022-10-22T23:24:18.017Z,100903.09
2022-10-22T23:26:46.477Z,100904.78
2022-10-22T23:29:15.366Z,100914.44
2022-10-22T23:31:43.200Z,100911.84
2022-10-22T23:34:11.541Z,100907.44
2022-10-22T23:36:39.416Z,100909.44
2022-10-22T23:39:07.904Z,100910.94
2022-10-22T23:41:35.307Z,100909.69
2022-10-22T23:44:03.078Z,100912.25
2022-10-22T23:46:30.541Z,100905.28
2022-10-22T23:48:57.761Z,100914.41
2022-10-22T23:51:25.191Z,100924.47
2022-10-22T23:53:56.627Z,100919.56
2022-10-22T23:56:24.116Z,100921.63
2022-10-22T23:58:52.355Z,100923.25
